CheckWX is a tool to help pilots better visualize weather data.  It is not intended as a substitute for an official pre-flight weather briefing.

17:32:05 UTC

ENBR METAR
Bergen , Flesland Airport
Bergen, Norway
Current

12 mins ago

ENBR 241720Z 15006KT 100V210 9000 -SHRA FEW004 SCT008 BKN011CB 03/02 Q1006 TEMPO 4000 SHRA SCT012CB BKN020 RMK WIND 1200FT 27013KT
Observed
Mar-24 @ 17:20 UTC
Wind
  • 150° at 6 KTS
Visibility
8,996 meters
Flight Rules
MVFR
Conditions
Light Rain
Cloud Levels
  • Few at 400' AGL
  • Scattered at 800' AGL
  • Broken at 1,100' AGL
Temperature
C / 37°F
Dewpoint
C / 36°F
Humidity
93%
Altimeter
29.7" Hg
Pressure
1005.92 hPa
Previous

42 mins ago

ENBR 241650Z 13004KT 090V170 9999 7000N -SHRA SCT008 BKN015CB 03/02 Q1006 TEMPO 4000 SHRA BKN012CB RMK WIND 1200FT 22010KT
Observed
Mar-24 @ 16:50 UTC
Wind
  • 130° at 4 KTS
Visibility
10,000+ meters
Flight Rules
MVFR
Conditions
Light Rain
Cloud Levels
  • Scattered at 800' AGL
  • Broken at 1,500' AGL
Temperature
C / 37°F
Dewpoint
C / 36°F
Humidity
93%
Altimeter
29.7" Hg
Pressure
1005.92 hPa
Previous

1 hour ago

ENBR 241620Z 26008KT 220V320 9000 -SHRA SCT008 BKN015CB 03/01 Q1006 TEMPO 4000 SHRA BKN012CB RMK WIND 1200FT VRB12KT
Observed
Mar-24 @ 16:20 UTC
Wind
  • 260° at 8 KTS
Visibility
8,996 meters
Flight Rules
MVFR
Conditions
Light Rain
Cloud Levels
  • Scattered at 800' AGL
  • Broken at 1,500' AGL
Temperature
C / 37°F
Dewpoint
C / 34°F
Humidity
87%
Altimeter
29.7" Hg
Pressure
1005.92 hPa